sensor_id;sensor_type;location;lat;lon;timestamp;P1;durP1;ratioP1;P2;durP2;ratioP2
58222;SDS011;44020;50.890;15.796;2023-07-29T00:01:09;5.70;;;2.40;;
58222;SDS011;44020;50.890;15.796;2023-07-29T00:03:37;3.80;;;2.60;;
58222;SDS011;44020;50.890;15.796;2023-07-29T00:06:04;6.90;;;2.70;;
58222;SDS011;44020;50.890;15.796;2023-07-29T00:08:32;4.50;;;1.90;;
58222;SDS011;44020;50.890;15.796;2023-07-29T00:11:00;3.40;;;1.90;;
58222;SDS011;44020;50.890;15.796;2023-07-29T00:13:27;4.90;;;2.20;;
58222;SDS011;44020;50.890;15.796;2023-07-29T00:15:55;5.60;;;1.90;;
58222;SDS011;44020;50.890;15.796;2023-07-29T00:18:22;3.40;;;2.00;;
58222;SDS011;44020;50.890;15.796;2023-07-29T00:20:50;4.70;;;2.20;;
58222;SDS011;44020;50.890;15.796;2023-07-29T00:23:18;4.80;;;2.40;;
58222;SDS011;44020;50.890;15.796;2023-07-29T00:25:46;3.70;;;2.00;;
58222;SDS011;44020;50.890;15.796;2023-07-29T00:28:13;3.50;;;2.20;;
58222;SDS011;44020;50.890;15.796;2023-07-29T00:30:41;4.10;;;2.20;;
58222;SDS011;44020;50.890;15.796;2023-07-29T00:33:09;4.30;;;2.70;;
58222;SDS011;44020;50.890;15.796;2023-07-29T00:35:37;3.60;;;2.60;;
58222;SDS011;44020;50.890;15.796;2023-07-29T00:38:04;5.30;;;2.70;;
58222;SDS011;44020;50.890;15.796;2023-07-29T00:40:32;4.20;;;2.80;;
58222;SDS011;44020;50.890;15.796;2023-07-29T00:43:02;3.50;;;2.50;;
58222;SDS011;44020;50.890;15.796;2023-07-29T00:45:30;3.80;;;2.40;;
58222;SDS011;44020;50.890;15.796;2023-07-29T00:47:59;3.60;;;2.10;;
58222;SDS011;44020;50.890;15.796;2023-07-29T00:50:29;3.80;;;2.00;;
58222;SDS011;44020;50.890;15.796;2023-07-29T00:52:58;3.40;;;2.00;;
58222;SDS011;44020;50.890;15.796;2023-07-29T00:55:26;3.70;;;2.10;;
58222;SDS011;44020;50.890;15.796;2023-07-29T00:57:55;4.60;;;1.70;;
58222;SDS011;44020;50.890;15.796;2023-07-29T01:00:23;2.90;;;2.10;;
58222;SDS011;44020;50.890;15.796;2023-07-29T01:02:52;2.70;;;2.20;;
58222;SDS011;44020;50.890;15.796;2023-07-29T01:05:21;6.20;;;2.40;;
58222;SDS011;44020;50.890;15.796;2023-07-29T01:10:46;5.30;;;2.30;;
58222;SDS011;44020;50.890;15.796;2023-07-29T01:13:35;3.90;;;2.10;;
58222;SDS011;44020;50.890;15.796;2023-07-29T01:16:20;3.70;;;2.50;;
58222;SDS011;44020;50.890;15.796;2023-07-29T01:18:57;4.40;;;2.50;;
58222;SDS011;44020;50.890;15.796;2023-07-29T01:21:31;4.50;;;2.90;;
58222;SDS011;44020;50.890;15.796;2023-07-29T01:24:00;3.60;;;2.70;;
58222;SDS011;44020;50.890;15.796;2023-07-29T01:26:27;4.00;;;3.00;;
58222;SDS011;44020;50.890;15.796;2023-07-29T01:28:56;3.90;;;2.40;;
58222;SDS011;44020;50.890;15.796;2023-07-29T01:31:27;4.70;;;2.80;;
58222;SDS011;44020;50.890;15.796;2023-07-29T01:34:04;3.80;;;2.40;;
58222;SDS011;44020;50.890;15.796;2023-07-29T01:36:38;2.70;;;2.00;;
58222;SDS011;44020;50.890;15.796;2023-07-29T01:39:08;3.70;;;2.30;;
58222;SDS011;44020;50.890;15.796;2023-07-29T01:41:38;3.00;;;2.40;;
58222;SDS011;44020;50.890;15.796;2023-07-29T01:44:07;3.80;;;2.50;;
58222;SDS011;44020;50.890;15.796;2023-07-29T01:46:35;4.30;;;2.30;;
58222;SDS011;44020;50.890;15.796;2023-07-29T01:49:04;3.40;;;2.40;;
58222;SDS011;44020;50.890;15.796;2023-07-29T01:51:31;4.80;;;2.40;;
58222;SDS011;44020;50.890;15.796;2023-07-29T01:53:59;2.90;;;2.20;;
58222;SDS011;44020;50.890;15.796;2023-07-29T01:56:27;4.00;;;2.30;;
58222;SDS011;44020;50.890;15.796;2023-07-29T01:58:54;4.20;;;2.30;;
58222;SDS011;44020;50.890;15.796;2023-07-29T02:01:22;4.70;;;2.30;;
58222;SDS011;44020;50.890;15.796;2023-07-29T02:03:50;3.50;;;1.90;;
58222;SDS011;44020;50.890;15.796;2023-07-29T02:06:22;5.30;;;2.40;;
58222;SDS011;44020;50.890;15.796;2023-07-29T02:08:49;3.00;;;1.70;;
58222;SDS011;44020;50.890;15.796;2023-07-29T02:11:17;2.80;;;2.00;;
58222;SDS011;44020;50.890;15.796;2023-07-29T02:13:47;2.30;;;1.70;;
58222;SDS011;44020;50.890;15.796;2023-07-29T02:16:14;2.60;;;1.70;;
58222;SDS011;44020;50.890;15.796;2023-07-29T02:18:42;5.00;;;2.30;;
58222;SDS011;44020;50.890;15.796;2023-07-29T02:21:09;3.40;;;2.20;;
58222;SDS011;44020;50.890;15.796;2023-07-29T02:23:37;3.50;;;2.00;;
58222;SDS011;44020;50.890;15.796;2023-07-29T02:26:05;3.60;;;1.90;;
58222;SDS011;44020;50.890;15.796;2023-07-29T02:28:33;7.20;;;2.10;;
58222;SDS011;44020;50.890;15.796;2023-07-29T02:33:50;3.70;;;2.20;;
58222;SDS011;44020;50.890;15.796;2023-07-29T02:36:18;3.70;;;2.10;;
58222;SDS011;44020;50.890;15.796;2023-07-29T02:38:46;5.20;;;2.20;;
58222;SDS011;44020;50.890;15.796;2023-07-29T02:41:13;2.70;;;2.10;;
58222;SDS011;44020;50.890;15.796;2023-07-29T02:43:43;3.50;;;2.00;;
58222;SDS011;44020;50.890;15.796;2023-07-29T02:46:15;2.90;;;1.90;;
58222;SDS011;44020;50.890;15.796;2023-07-29T02:48:44;3.60;;;2.30;;
58222;SDS011;44020;50.890;15.796;2023-07-29T02:51:12;2.90;;;2.00;;
58222;SDS011;44020;50.890;15.796;2023-07-29T02:53:40;4.60;;;2.20;;
58222;SDS011;44020;50.890;15.796;2023-07-29T02:56:07;3.40;;;2.10;;
58222;SDS011;44020;50.890;15.796;2023-07-29T02:58:36;2.70;;;1.80;;
58222;SDS011;44020;50.890;15.796;2023-07-29T03:01:05;3.70;;;2.00;;
58222;SDS011;44020;50.890;15.796;2023-07-29T03:03:33;3.10;;;2.00;;
58222;SDS011;44020;50.890;15.796;2023-07-29T03:06:05;2.20;;;1.70;;
58222;SDS011;44020;50.890;15.796;2023-07-29T03:08:37;3.60;;;2.10;;
58222;SDS011;44020;50.890;15.796;2023-07-29T03:11:05;3.90;;;2.10;;
58222;SDS011;44020;50.890;15.796;2023-07-29T03:13:34;2.60;;;1.80;;
58222;SDS011;44020;50.890;15.796;2023-07-29T03:16:08;2.50;;;1.80;;
58222;SDS011;44020;50.890;15.796;2023-07-29T03:18:41;3.50;;;2.00;;
58222;SDS011;44020;50.890;15.796;2023-07-29T03:21:10;4.80;;;2.00;;
58222;SDS011;44020;50.890;15.796;2023-07-29T03:23:38;3.70;;;1.90;;
58222;SDS011;44020;50.890;15.796;2023-07-29T03:26:05;6.80;;;2.00;;
58222;SDS011;44020;50.890;15.796;2023-07-29T03:28:40;3.20;;;1.80;;
58222;SDS011;44020;50.890;15.796;2023-07-29T03:31:08;3.10;;;1.80;;
58222;SDS011;44020;50.890;15.796;2023-07-29T03:33:37;5.20;;;1.50;;
58222;SDS011;44020;50.890;15.796;2023-07-29T03:36:05;5.70;;;2.10;;
58222;SDS011;44020;50.890;15.796;2023-07-29T03:38:32;3.10;;;2.00;;
58222;SDS011;44020;50.890;15.796;2023-07-29T03:41:02;3.70;;;2.00;;
58222;SDS011;44020;50.890;15.796;2023-07-29T03:43:30;5.50;;;2.00;;
58222;SDS011;44020;50.890;15.796;2023-07-29T03:45:58;5.50;;;2.20;;
58222;SDS011;44020;50.890;15.796;2023-07-29T03:48:25;3.40;;;1.90;;
58222;SDS011;44020;50.890;15.796;2023-07-29T03:50:53;3.20;;;2.30;;
58222;SDS011;44020;50.890;15.796;2023-07-29T03:53:21;4.20;;;2.40;;
58222;SDS011;44020;50.890;15.796;2023-07-29T03:55:49;5.20;;;2.40;;
58222;SDS011;44020;50.890;15.796;2023-07-29T03:58:17;4.90;;;2.60;;
58222;SDS011;44020;50.890;15.796;2023-07-29T04:00:45;2.80;;;1.80;;
58222;SDS011;44020;50.890;15.796;2023-07-29T04:03:12;3.30;;;2.00;;
58222;SDS011;44020;50.890;15.796;2023-07-29T04:05:40;5.00;;;1.90;;
58222;SDS011;44020;50.890;15.796;2023-07-29T04:08:07;4.30;;;2.00;;
58222;SDS011;44020;50.890;15.796;2023-07-29T04:10:34;5.70;;;2.60;;
58222;SDS011;44020;50.890;15.796;2023-07-29T04:13:05;6.40;;;2.30;;
58222;SDS011;44020;50.890;15.796;2023-07-29T04:15:32;5.40;;;2.30;;
58222;SDS011;44020;50.890;15.796;2023-07-29T04:18:00;5.90;;;2.50;;
58222;SDS011;44020;50.890;15.796;2023-07-29T04:20:27;5.80;;;2.40;;
58222;SDS011;44020;50.890;15.796;2023-07-29T04:22:55;6.60;;;2.80;;
58222;SDS011;44020;50.890;15.796;2023-07-29T04:25:22;5.70;;;2.60;;
58222;SDS011;44020;50.890;15.796;2023-07-29T04:27:50;6.20;;;3.00;;
58222;SDS011;44020;50.890;15.796;2023-07-29T04:30:18;5.80;;;2.60;;
58222;SDS011;44020;50.890;15.796;2023-07-29T04:32:45;8.90;;;2.60;;
58222;SDS011;44020;50.890;15.796;2023-07-29T04:35:15;8.60;;;2.70;;
58222;SDS011;44020;50.890;15.796;2023-07-29T04:37:42;5.20;;;2.50;;
58222;SDS011;44020;50.890;15.796;2023-07-29T04:40:11;6.60;;;2.80;;
58222;SDS011;44020;50.890;15.796;2023-07-29T04:42:38;7.20;;;2.50;;
58222;SDS011;44020;50.890;15.796;2023-07-29T04:45:06;8.50;;;2.50;;
58222;SDS011;44020;50.890;15.796;2023-07-29T04:47:34;6.50;;;2.10;;
58222;SDS011;44020;50.890;15.796;2023-07-29T04:50:01;5.60;;;2.50;;
58222;SDS011;44020;50.890;15.796;2023-07-29T04:52:29;9.60;;;2.70;;
58222;SDS011;44020;50.890;15.796;2023-07-29T04:54:56;6.80;;;2.60;;
58222;SDS011;44020;50.890;15.796;2023-07-29T04:57:24;6.00;;;2.70;;
58222;SDS011;44020;50.890;15.796;2023-07-29T04:59:51;6.00;;;2.70;;
58222;SDS011;44020;50.890;15.796;2023-07-29T05:02:19;8.80;;;2.40;;
58222;SDS011;44020;50.890;15.796;2023-07-29T05:04:48;4.20;;;2.20;;
58222;SDS011;44020;50.890;15.796;2023-07-29T05:07:15;4.60;;;2.00;;
58222;SDS011;44020;50.890;15.796;2023-07-29T05:09:42;4.20;;;1.90;;
58222;SDS011;44020;50.890;15.796;2023-07-29T05:12:09;4.00;;;2.00;;
58222;SDS011;44020;50.890;15.796;2023-07-29T05:14:37;3.80;;;2.10;;
58222;SDS011;44020;50.890;15.796;2023-07-29T05:17:05;4.20;;;2.20;;
58222;SDS011;44020;50.890;15.796;2023-07-29T05:19:33;6.70;;;2.50;;
58222;SDS011;44020;50.890;15.796;2023-07-29T05:22:00;5.40;;;2.20;;
58222;SDS011;44020;50.890;15.796;2023-07-29T05:24:27;4.70;;;1.80;;
58222;SDS011;44020;50.890;15.796;2023-07-29T05:26:55;4.00;;;1.60;;
58222;SDS011;44020;50.890;15.796;2023-07-29T05:29:22;7.00;;;2.20;;
58222;SDS011;44020;50.890;15.796;2023-07-29T05:31:50;5.10;;;2.50;;
58222;SDS011;44020;50.890;15.796;2023-07-29T05:34:17;6.50;;;2.10;;
58222;SDS011;44020;50.890;15.796;2023-07-29T05:36:44;4.10;;;2.10;;
58222;SDS011;44020;50.890;15.796;2023-07-29T05:39:12;3.70;;;2.00;;
58222;SDS011;44020;50.890;15.796;2023-07-29T05:41:39;3.40;;;2.10;;
58222;SDS011;44020;50.890;15.796;2023-07-29T05:44:06;2.80;;;1.70;;
58222;SDS011;44020;50.890;15.796;2023-07-29T05:46:34;2.10;;;1.60;;
58222;SDS011;44020;50.890;15.796;2023-07-29T05:49:01;2.50;;;1.60;;
58222;SDS011;44020;50.890;15.796;2023-07-29T05:51:29;2.80;;;1.70;;
58222;SDS011;44020;50.890;15.796;2023-07-29T05:53:57;3.20;;;2.00;;
58222;SDS011;44020;50.890;15.796;2023-07-29T05:56:24;4.40;;;2.10;;
58222;SDS011;44020;50.890;15.796;2023-07-29T05:58:51;3.30;;;1.70;;
58222;SDS011;44020;50.890;15.796;2023-07-29T06:01:18;2.40;;;1.60;;
58222;SDS011;44020;50.890;15.796;2023-07-29T06:03:48;2.90;;;1.70;;
58222;SDS011;44020;50.890;15.796;2023-07-29T06:06:16;5.10;;;2.00;;
58222;SDS011;44020;50.890;15.796;2023-07-29T06:08:43;3.60;;;1.60;;
58222;SDS011;44020;50.890;15.796;2023-07-29T06:11:11;3.00;;;2.00;;
58222;SDS011;44020;50.890;15.796;2023-07-29T06:13:39;2.80;;;1.60;;
58222;SDS011;44020;50.890;15.796;2023-07-29T06:16:06;3.20;;;1.80;;
58222;SDS011;44020;50.890;15.796;2023-07-29T06:18:34;4.00;;;2.00;;
58222;SDS011;44020;50.890;15.796;2023-07-29T06:21:01;3.70;;;1.80;;
58222;SDS011;44020;50.890;15.796;2023-07-29T06:23:29;3.20;;;1.70;;
58222;SDS011;44020;50.890;15.796;2023-07-29T06:25:56;2.20;;;1.50;;
58222;SDS011;44020;50.890;15.796;2023-07-29T06:28:23;2.70;;;1.60;;
58222;SDS011;44020;50.890;15.796;2023-07-29T06:30:50;1.60;;;1.40;;
58222;SDS011;44020;50.890;15.796;2023-07-29T06:33:18;2.90;;;1.70;;
58222;SDS011;44020;50.890;15.796;2023-07-29T06:35:45;1.70;;;1.40;;
58222;SDS011;44020;50.890;15.796;2023-07-29T06:38:12;1.90;;;1.50;;
58222;SDS011;44020;50.890;15.796;2023-07-29T06:40:40;1.90;;;1.50;;
58222;SDS011;44020;50.890;15.796;2023-07-29T06:43:08;3.50;;;1.90;;
58222;SDS011;44020;50.890;15.796;2023-07-29T06:45:35;1.70;;;1.60;;
58222;SDS011;44020;50.890;15.796;2023-07-29T06:48:03;1.50;;;1.30;;
58222;SDS011;44020;50.890;15.796;2023-07-29T06:50:30;1.50;;;1.40;;
58222;SDS011;44020;50.890;15.796;2023-07-29T06:52:58;2.10;;;1.40;;
58222;SDS011;44020;50.890;15.796;2023-07-29T06:55:26;2.80;;;1.60;;
58222;SDS011;44020;50.890;15.796;2023-07-29T06:57:53;1.90;;;1.70;;
58222;SDS011;44020;50.890;15.796;2023-07-29T07:00:21;3.20;;;1.70;;
58222;SDS011;44020;50.890;15.796;2023-07-29T07:02:48;1.40;;;1.30;;
58222;SDS011;44020;50.890;15.796;2023-07-29T07:05:16;1.60;;;1.30;;
58222;SDS011;44020;50.890;15.796;2023-07-29T07:07:44;2.40;;;1.20;;
58222;SDS011;44020;50.890;15.796;2023-07-29T07:10:12;1.40;;;1.30;;
58222;SDS011;44020;50.890;15.796;2023-07-29T07:12:41;2.50;;;1.40;;
58222;SDS011;44020;50.890;15.796;2023-07-29T07:15:08;1.80;;;1.40;;
58222;SDS011;44020;50.890;15.796;2023-07-29T07:17:36;2.30;;;1.40;;
58222;SDS011;44020;50.890;15.796;2023-07-29T07:20:04;2.30;;;1.20;;
58222;SDS011;44020;50.890;15.796;2023-07-29T07:22:32;2.30;;;1.50;;
58222;SDS011;44020;50.890;15.796;2023-07-29T07:25:00;1.60;;;1.30;;
58222;SDS011;44020;50.890;15.796;2023-07-29T07:27:27;1.10;;;1.00;;
58222;SDS011;44020;50.890;15.796;2023-07-29T07:29:55;1.10;;;1.00;;
58222;SDS011;44020;50.890;15.796;2023-07-29T07:32:23;1.50;;;1.10;;
58222;SDS011;44020;50.890;15.796;2023-07-29T07:34:50;1.00;;;0.90;;
58222;SDS011;44020;50.890;15.796;2023-07-29T07:37:18;2.30;;;1.10;;
58222;SDS011;44020;50.890;15.796;2023-07-29T07:39:46;1.30;;;1.10;;
58222;SDS011;44020;50.890;15.796;2023-07-29T07:42:23;1.80;;;1.00;;
58222;SDS011;44020;50.890;15.796;2023-07-29T07:44:51;1.10;;;1.00;;
58222;SDS011;44020;50.890;15.796;2023-07-29T07:47:18;3.20;;;0.90;;
58222;SDS011;44020;50.890;15.796;2023-07-29T07:49:46;2.40;;;1.10;;
58222;SDS011;44020;50.890;15.796;2023-07-29T07:52:16;1.30;;;1.20;;
58222;SDS011;44020;50.890;15.796;2023-07-29T07:54:43;1.50;;;1.40;;
58222;SDS011;44020;50.890;15.796;2023-07-29T07:57:10;2.50;;;1.20;;
58222;SDS011;44020;50.890;15.796;2023-07-29T07:59:38;2.00;;;1.50;;
58222;SDS011;44020;50.890;15.796;2023-07-29T08:02:06;2.20;;;1.40;;
58222;SDS011;44020;50.890;15.796;2023-07-29T08:04:33;1.80;;;1.20;;
58222;SDS011;44020;50.890;15.796;2023-07-29T08:07:01;1.60;;;1.40;;
58222;SDS011;44020;50.890;15.796;2023-07-29T08:09:28;1.90;;;1.30;;
58222;SDS011;44020;50.890;15.796;2023-07-29T08:11:56;1.80;;;1.50;;
58222;SDS011;44020;50.890;15.796;2023-07-29T08:14:23;1.60;;;1.10;;
58222;SDS011;44020;50.890;15.796;2023-07-29T08:16:51;1.70;;;1.60;;
58222;SDS011;44020;50.890;15.796;2023-07-29T08:19:21;1.80;;;1.40;;
58222;SDS011;44020;50.890;15.796;2023-07-29T08:21:49;2.00;;;1.60;;
58222;SDS011;44020;50.890;15.796;2023-07-29T08:24:17;2.00;;;1.80;;
58222;SDS011;44020;50.890;15.796;2023-07-29T08:26:45;2.20;;;1.50;;
58222;SDS011;44020;50.890;15.796;2023-07-29T08:29:13;1.90;;;1.70;;
58222;SDS011;44020;50.890;15.796;2023-07-29T08:31:40;1.90;;;1.60;;
58222;SDS011;44020;50.890;15.796;2023-07-29T08:34:08;1.60;;;1.40;;
58222;SDS011;44020;50.890;15.796;2023-07-29T08:36:35;1.80;;;1.60;;
58222;SDS011;44020;50.890;15.796;2023-07-29T08:39:03;2.80;;;1.70;;
58222;SDS011;44020;50.890;15.796;2023-07-29T08:41:32;3.90;;;1.70;;
58222;SDS011;44020;50.890;15.796;2023-07-29T08:44:18;1.80;;;1.70;;
58222;SDS011;44020;50.890;15.796;2023-07-29T08:46:49;1.60;;;1.50;;
58222;SDS011;44020;50.890;15.796;2023-07-29T08:49:18;2.00;;;1.40;;
58222;SDS011;44020;50.890;15.796;2023-07-29T08:51:46;1.50;;;1.40;;
58222;SDS011;44020;50.890;15.796;2023-07-29T08:54:17;2.80;;;1.90;;
58222;SDS011;44020;50.890;15.796;2023-07-29T08:56:46;3.10;;;1.50;;
58222;SDS011;44020;50.890;15.796;2023-07-29T08:59:14;1.50;;;1.40;;
58222;SDS011;44020;50.890;15.796;2023-07-29T09:01:43;1.90;;;1.60;;
58222;SDS011;44020;50.890;15.796;2023-07-29T09:04:11;2.00;;;1.80;;
58222;SDS011;44020;50.890;15.796;2023-07-29T09:06:39;1.90;;;1.70;;
58222;SDS011;44020;50.890;15.796;2023-07-29T09:09:09;2.20;;;1.80;;
58222;SDS011;44020;50.890;15.796;2023-07-29T09:11:37;1.80;;;1.70;;
58222;SDS011;44020;50.890;15.796;2023-07-29T09:14:05;1.60;;;1.40;;
58222;SDS011;44020;50.890;15.796;2023-07-29T09:16:33;2.80;;;1.30;;
58222;SDS011;44020;50.890;15.796;2023-07-29T09:19:01;1.90;;;1.80;;
58222;SDS011;44020;50.890;15.796;2023-07-29T09:21:32;1.70;;;1.60;;
58222;SDS011;44020;50.890;15.796;2023-07-29T09:24:03;2.40;;;1.80;;
58222;SDS011;44020;50.890;15.796;2023-07-29T09:26:32;1.90;;;1.70;;
58222;SDS011;44020;50.890;15.796;2023-07-29T09:29:00;1.80;;;1.70;;
58222;SDS011;44020;50.890;15.796;2023-07-29T09:31:29;2.00;;;1.60;;
58222;SDS011;44020;50.890;15.796;2023-07-29T09:34:01;1.90;;;1.60;;
58222;SDS011;44020;50.890;15.796;2023-07-29T09:36:31;1.70;;;1.50;;
58222;SDS011;44020;50.890;15.796;2023-07-29T09:39:00;1.40;;;1.30;;
58222;SDS011;44020;50.890;15.796;2023-07-29T09:41:48;1.40;;;1.30;;
58222;SDS011;44020;50.890;15.796;2023-07-29T09:44:16;1.30;;;1.20;;
58222;SDS011;44020;50.890;15.796;2023-07-29T09:46:45;2.20;;;1.20;;
58222;SDS011;44020;50.890;15.796;2023-07-29T09:49:14;2.40;;;1.30;;
58222;SDS011;44020;50.890;15.796;2023-07-29T09:51:42;1.30;;;1.00;;
58222;SDS011;44020;50.890;15.796;2023-07-29T09:54:10;1.50;;;0.80;;
58222;SDS011;44020;50.890;15.796;2023-07-29T09:56:41;1.10;;;0.90;;
58222;SDS011;44020;50.890;15.796;2023-07-29T09:59:11;0.80;;;0.80;;
58222;SDS011;44020;50.890;15.796;2023-07-29T10:01:40;1.60;;;1.10;;
58222;SDS011;44020;50.890;15.796;2023-07-29T10:04:09;1.20;;;1.10;;
58222;SDS011;44020;50.890;15.796;2023-07-29T10:06:37;1.20;;;0.90;;
58222;SDS011;44020;50.890;15.796;2023-07-29T10:09:06;0.90;;;0.90;;
58222;SDS011;44020;50.890;15.796;2023-07-29T10:11:43;1.30;;;0.90;;
58222;SDS011;44020;50.890;15.796;2023-07-29T10:14:11;1.30;;;0.80;;
58222;SDS011;44020;50.890;15.796;2023-07-29T10:16:40;1.20;;;0.90;;
58222;SDS011;44020;50.890;15.796;2023-07-29T10:19:09;1.10;;;0.90;;
58222;SDS011;44020;50.890;15.796;2023-07-29T10:21:38;1.00;;;0.80;;
58222;SDS011;44020;50.890;15.796;2023-07-29T10:24:09;1.30;;;0.80;;
58222;SDS011;44020;50.890;15.796;2023-07-29T10:26:44;0.70;;;0.60;;
58222;SDS011;44020;50.890;15.796;2023-07-29T10:29:22;0.70;;;0.60;;
58222;SDS011;44020;50.890;15.796;2023-07-29T10:31:54;0.70;;;0.60;;
58222;SDS011;44020;50.890;15.796;2023-07-29T10:34:28;0.60;;;0.50;;
58222;SDS011;44020;50.890;15.796;2023-07-29T10:36:57;0.70;;;0.70;;
58222;SDS011;44020;50.890;15.796;2023-07-29T10:39:25;1.70;;;0.60;;
58222;SDS011;44020;50.890;15.796;2023-07-29T10:47:11;0.70;;;0.60;;
58222;SDS011;44020;50.890;15.796;2023-07-29T10:49:46;0.60;;;0.50;;
58222;SDS011;44020;50.890;15.796;2023-07-29T10:52:40;0.60;;;0.50;;
58222;SDS011;44020;50.890;15.796;2023-07-29T10:55:24;1.80;;;0.60;;
58222;SDS011;44020;50.890;15.796;2023-07-29T11:00:42;0.60;;;0.60;;
58222;SDS011;44020;50.890;15.796;2023-07-29T11:03:11;1.90;;;0.50;;
58222;SDS011;44020;50.890;15.796;2023-07-29T11:05:44;0.70;;;0.70;;
58222;SDS011;44020;50.890;15.796;2023-07-29T11:08:35;0.60;;;0.60;;
58222;SDS011;44020;50.890;15.796;2023-07-29T11:11:06;0.60;;;0.60;;
58222;SDS011;44020;50.890;15.796;2023-07-29T11:16:20;3.90;;;0.70;;
58222;SDS011;44020;50.890;15.796;2023-07-29T11:18:48;0.70;;;0.60;;
58222;SDS011;44020;50.890;15.796;2023-07-29T11:21:16;2.50;;;0.70;;
58222;SDS011;44020;50.890;15.796;2023-07-29T11:23:44;0.50;;;0.50;;
58222;SDS011;44020;50.890;15.796;2023-07-29T11:26:12;0.90;;;0.60;;
58222;SDS011;44020;50.890;15.796;2023-07-29T11:28:40;0.70;;;0.60;;
58222;SDS011;44020;50.890;15.796;2023-07-29T11:31:08;0.60;;;0.60;;
58222;SDS011;44020;50.890;15.796;2023-07-29T11:33:38;0.70;;;0.50;;
58222;SDS011;44020;50.890;15.796;2023-07-29T11:36:06;0.70;;;0.70;;
58222;SDS011;44020;50.890;15.796;2023-07-29T11:39:09;1.40;;;0.70;;
58222;SDS011;44020;50.890;15.796;2023-07-29T11:41:38;1.40;;;0.70;;
58222;SDS011;44020;50.890;15.796;2023-07-29T11:44:20;1.00;;;0.60;;
58222;SDS011;44020;50.890;15.796;2023-07-29T11:46:48;0.80;;;0.60;;
58222;SDS011;44020;50.890;15.796;2023-07-29T11:49:15;0.60;;;0.60;;
58222;SDS011;44020;50.890;15.796;2023-07-29T11:51:43;2.10;;;0.70;;
58222;SDS011;44020;50.890;15.796;2023-07-29T11:54:11;0.50;;;0.50;;
58222;SDS011;44020;50.890;15.796;2023-07-29T11:56:40;1.50;;;0.70;;
58222;SDS011;44020;50.890;15.796;2023-07-29T11:59:08;0.60;;;0.60;;
58222;SDS011;44020;50.890;15.796;2023-07-29T12:01:35;0.60;;;0.50;;
58222;SDS011;44020;50.890;15.796;2023-07-29T12:04:06;1.30;;;0.60;;
58222;SDS011;44020;50.890;15.796;2023-07-29T12:06:37;1.60;;;0.60;;
58222;SDS011;44020;50.890;15.796;2023-07-29T12:09:06;0.50;;;0.50;;
58222;SDS011;44020;50.890;15.796;2023-07-29T12:11:36;0.80;;;0.50;;
58222;SDS011;44020;50.890;15.796;2023-07-29T12:14:06;0.70;;;0.50;;
58222;SDS011;44020;50.890;15.796;2023-07-29T12:16:43;0.60;;;0.60;;
58222;SDS011;44020;50.890;15.796;2023-07-29T12:19:15;1.30;;;0.60;;
58222;SDS011;44020;50.890;15.796;2023-07-29T12:21:45;0.80;;;0.60;;
58222;SDS011;44020;50.890;15.796;2023-07-29T12:24:16;0.80;;;0.50;;
58222;SDS011;44020;50.890;15.796;2023-07-29T12:26:44;0.60;;;0.60;;
58222;SDS011;44020;50.890;15.796;2023-07-29T12:29:12;0.50;;;0.50;;
58222;SDS011;44020;50.890;15.796;2023-07-29T12:31:46;0.70;;;0.50;;
58222;SDS011;44020;50.890;15.796;2023-07-29T12:34:18;3.00;;;0.70;;
58222;SDS011;44020;50.890;15.796;2023-07-29T12:36:48;1.20;;;0.70;;
58222;SDS011;44020;50.890;15.796;2023-07-29T12:39:18;1.00;;;0.70;;
58222;SDS011;44020;50.890;15.796;2023-07-29T12:41:51;0.70;;;0.60;;
58222;SDS011;44020;50.890;15.796;2023-07-29T12:44:20;0.60;;;0.60;;
58222;SDS011;44020;50.890;15.796;2023-07-29T12:46:49;0.90;;;0.70;;
58222;SDS011;44020;50.890;15.796;2023-07-29T12:49:18;1.20;;;0.90;;
58222;SDS011;44020;50.890;15.796;2023-07-29T12:51:47;2.60;;;0.70;;
58222;SDS011;44020;50.890;15.796;2023-07-29T12:54:15;2.40;;;0.60;;
58222;SDS011;44020;50.890;15.796;2023-07-29T12:56:42;0.80;;;0.80;;
58222;SDS011;44020;50.890;15.796;2023-07-29T12:59:19;1.10;;;0.50;;
58222;SDS011;44020;50.890;15.796;2023-07-29T13:01:46;1.00;;;0.80;;
58222;SDS011;44020;50.890;15.796;2023-07-29T13:04:15;0.90;;;0.70;;
58222;SDS011;44020;50.890;15.796;2023-07-29T13:06:43;1.00;;;0.80;;
58222;SDS011;44020;50.890;15.796;2023-07-29T13:09:10;1.10;;;0.60;;
58222;SDS011;44020;50.890;15.796;2023-07-29T13:11:38;1.00;;;0.70;;
58222;SDS011;44020;50.890;15.796;2023-07-29T13:14:10;0.80;;;0.60;;
58222;SDS011;44020;50.890;15.796;2023-07-29T13:16:40;1.30;;;0.80;;
58222;SDS011;44020;50.890;15.796;2023-07-29T13:19:11;0.80;;;0.70;;
58222;SDS011;44020;50.890;15.796;2023-07-29T13:21:41;3.10;;;0.70;;
58222;SDS011;44020;50.890;15.796;2023-07-29T13:24:09;2.50;;;1.00;;
58222;SDS011;44020;50.890;15.796;2023-07-29T13:26:37;1.80;;;0.80;;
58222;SDS011;44020;50.890;15.796;2023-07-29T13:29:14;0.90;;;0.70;;
58222;SDS011;44020;50.890;15.796;2023-07-29T13:31:42;0.80;;;0.80;;
58222;SDS011;44020;50.890;15.796;2023-07-29T13:34:12;1.40;;;0.90;;
58222;SDS011;44020;50.890;15.796;2023-07-29T13:36:51;1.10;;;1.00;;
58222;SDS011;44020;50.890;15.796;2023-07-29T13:39:24;3.20;;;0.90;;
58222;SDS011;44020;50.890;15.796;2023-07-29T13:41:52;1.30;;;0.80;;
58222;SDS011;44020;50.890;15.796;2023-07-29T13:44:21;2.30;;;0.90;;
58222;SDS011;44020;50.890;15.796;2023-07-29T13:46:49;1.10;;;0.90;;
58222;SDS011;44020;50.890;15.796;2023-07-29T13:49:17;1.00;;;0.90;;
58222;SDS011;44020;50.890;15.796;2023-07-29T13:51:44;1.70;;;0.90;;
58222;SDS011;44020;50.890;15.796;2023-07-29T13:54:15;1.70;;;0.80;;
58222;SDS011;44020;50.890;15.796;2023-07-29T13:56:43;7.00;;;1.20;;
58222;SDS011;44020;50.890;15.796;2023-07-29T13:59:11;1.40;;;1.00;;
58222;SDS011;44020;50.890;15.796;2023-07-29T14:01:39;1.70;;;1.20;;
58222;SDS011;44020;50.890;15.796;2023-07-29T14:04:07;1.50;;;0.80;;
58222;SDS011;44020;50.890;15.796;2023-07-29T14:06:34;0.90;;;0.70;;
58222;SDS011;44020;50.890;15.796;2023-07-29T14:09:02;0.80;;;0.70;;
58222;SDS011;44020;50.890;15.796;2023-07-29T14:11:30;0.80;;;0.80;;
58222;SDS011;44020;50.890;15.796;2023-07-29T14:13:57;1.30;;;1.20;;
58222;SDS011;44020;50.890;15.796;2023-07-29T14:16:25;0.70;;;0.60;;
58222;SDS011;44020;50.890;15.796;2023-07-29T14:18:56;0.70;;;0.50;;
58222;SDS011;44020;50.890;15.796;2023-07-29T14:21:23;3.80;;;0.60;;
58222;SDS011;44020;50.890;15.796;2023-07-29T14:23:50;0.80;;;0.70;;
58222;SDS011;44020;50.890;15.796;2023-07-29T14:28:58;1.00;;;0.60;;
58222;SDS011;44020;50.890;15.796;2023-07-29T14:31:29;1.50;;;0.50;;
58222;SDS011;44020;50.890;15.796;2023-07-29T14:33:56;0.90;;;0.70;;
58222;SDS011;44020;50.890;15.796;2023-07-29T14:36:24;0.90;;;0.60;;
58222;SDS011;44020;50.890;15.796;2023-07-29T14:38:51;1.10;;;0.60;;
58222;SDS011;44020;50.890;15.796;2023-07-29T14:41:19;0.80;;;0.50;;
58222;SDS011;44020;50.890;15.796;2023-07-29T14:43:47;1.00;;;0.50;;
58222;SDS011;44020;50.890;15.796;2023-07-29T14:46:14;0.50;;;0.50;;
58222;SDS011;44020;50.890;15.796;2023-07-29T14:48:44;1.60;;;0.50;;
58222;SDS011;44020;50.890;15.796;2023-07-29T14:51:12;0.50;;;0.40;;
58222;SDS011;44020;50.890;15.796;2023-07-29T14:53:50;0.50;;;0.40;;
58222;SDS011;44020;50.890;15.796;2023-07-29T14:56:18;0.50;;;0.50;;
58222;SDS011;44020;50.890;15.796;2023-07-29T14:58:45;4.90;;;2.50;;
58222;SDS011;44020;50.890;15.796;2023-07-29T15:01:13;0.90;;;0.50;;
58222;SDS011;44020;50.890;15.796;2023-07-29T15:03:40;1.60;;;0.50;;